Flight Track Log - Related Links

Times and Time Zones

All times are in EDT time to prevent confusion due to time zone crossing. See the JBU33 flight status page for this flight to view local times or setup timezone preferences in your user account.

Time Position Orientation Groundspeed Altitude Reporting Facility
EDT Latitude Longitude Course Direction KTS MPH feet Rate Location/Type
Wed 01:21:26 PM 44.4689 -73.2372 193° South 251 289 3,800  Level Boston Center
Wed 01:22:00 PM 44.2362 -73.2284 190° South  Level FlightAware Approximate
Wed 01:22:27 PM 44.3897 -73.2506 187° South 269 310 7,200  Level Boston Center
Wed 01:23:00 PM 44.1624 -73.2641 195° South  Level FlightAware Approximate
Wed 01:23:27 PM 44.3164 -73.2931 203° Southwest 282 325 10,600  Level Boston Center
Wed 01:24:00 PM 44.0859 -73.2928 195° South  Level FlightAware Approximate
Wed 01:24:28 PM 44.2392 -73.3297 199° South 299 344 13,000  Level Boston Center
Wed 01:25:00 PM 44.0090 -73.3193 194° South  Level FlightAware Approximate
Wed 01:25:29 PM 44.1369 -73.3514 189° South 343 395 15,700  Level Boston Center
Wed 01:26:00 PM 43.9319 -73.3449 193° South  Level FlightAware Approximate
Wed 01:26:26 PM 44.0386 -73.3844 194° South 361 415 18,500  Level Boston Center
Wed 01:27:27 PM 43.9278 -73.4231 194° South 381 438 22,700 2,826 Climbing Boston Center
Wed 01:28:27 PM 43.8317 -73.4561 194° South 365 420 24,200 1,636 Climbing Boston Center
Wed 01:29:28 PM 43.7356 -73.4861 193° South 357 411 26,000 893 Climbing Boston Center
Wed 01:30:28 PM 43.6519 -73.5103 192° South 357 411 26,000  Level Boston Center
Wed 01:31:29 PM 43.5600 -73.5403 193° South 352 405 26,000  Level Boston Center
Wed 01:32:27 PM 43.4661 -73.5728 194° South 352 405 26,000  Level Boston Center
Wed 01:33:29 PM 43.3761 -73.5997 192° South 347 399 26,000  Level Boston Center
Wed 01:34:29 PM 43.2819 -73.6322 194° South 347 399 26,000  Level Boston Center
Wed 01:35:27 PM 43.1858 -73.6644 194° South 347 399 26,000  Level Boston Center
Wed 01:36:27 PM 43.0769 -73.6992 193° South 377 434 26,000  Level Boston Center
Wed 01:37:28 PM 42.9703 -73.7339 193° South 389 448 26,000  Level Boston Center
Wed 01:38:28 PM 42.8658 -73.7658 193° South 395 455 26,000  Level Boston Center
Wed 01:39:29 PM 42.7633 -73.8003 194° South 395 455 26,000  Level Boston Center
Wed 01:40:29 PM 42.6506 -73.8092 183° South 395 455 26,000  Level Boston Center
Wed 01:41:27 PM 42.5422 -73.8125 181° South 400 460 26,000  Level Boston Center
Wed 01:42:28 PM 42.4317 -73.8156 181° South 400 460 26,000  Level Boston Center
Wed 01:43:29 PM 42.3192 -73.8158 180° South 405 466 26,000  Level Boston Center
Wed 01:44:29 PM 42.2086 -73.8164 180° South 405 466 26,000  Level Boston Center
Wed 01:45:27 PM 42.1022 -73.8197 181° South 405 466 26,000  Level Boston Center
Wed 01:46:27 PM 41.9961 -73.8200 180° South 399 459 26,000  Level Boston Center
Wed 01:47:27 PM 41.8856 -73.8233 181° South 399 459 26,000  Level Boston Center
Wed 01:48:28 PM 41.7731 -73.8208 179° South 387 445 26,000 -746 Level Boston Center
Wed 01:50:56 PM 41.5442 -73.9253 199° South 342 394 23,400 -1,311 Descending New York Center
Wed 01:51:54 PM 41.4611 -74.0017 215° Southwest 349 402 21,500 -1,729 Descending New York Center
Wed 01:52:54 PM 41.3800 -74.0725 213° Southwest 355 409 20,000 -750 Descending New York Center
Wed 01:53:54 PM 41.2989 -74.1431 213° Southwest 355 409 20,000 -397 Level New York Center
Wed 01:54:55 PM 41.2200 -74.2053 211° Southwest 352 405 19,200 -500 Descending New York Center
Wed 01:55:54 PM 41.1494 -74.2678 214° Southwest 325 374 19,000 -100 Descending New York Center
Wed 01:56:55 PM 41.0711 -74.3106 202° Southwest 312 359 19,000  Level New York Center
Wed 01:57:55 PM 40.9903 -74.2292 143° Southeast 310 357 19,000  Level New York Center
Wed 01:58:55 PM 40.9136 -74.1403 139° Southeast 348 400 19,000 -706 Level New York Center
Wed 01:59:54 PM 40.8361 -74.0842 151° Southeast 367 422 17,600 -1,629 Descending New York Center
Wed 02:01:15 PM 40.7000 -74.0167 159° South 337 388 15,200 -1,702 Descending New York TRACON
Wed 02:02:15 PM 40.6167 -73.9833 163° South 329 379 13,600 -1,600 Descending New York TRACON
Wed 02:03:15 PM 40.5500 -73.9333 150° Southeast 323 372 12,000 -1,650 Descending New York TRACON
Wed 02:04:15 PM 40.4667 -73.8667 149° Southeast 313 360 10,300 -1,650 Descending New York TRACON
Wed 02:05:15 PM 40.4000 -73.7833 136° Southeast 306 352 8,700 -1,619 Descending New York TRACON
Wed 02:06:21 PM 40.3500 -73.7000 128° Southeast 309 356 6,900 -1,524 Descending New York TRACON
Wed 02:07:21 PM 40.3333 -73.6000 102° East 296 341 5,500 -1,355 Descending New York TRACON
Wed 02:07:54 PM 40.3350 -73.5536 87° East 284 327 4,800 -1,532 Descending New York Center
Wed 02:08:55 PM 40.3931 -73.4825 43° Northeast 237 273 3,100 -885 Descending New York Center
Wed 02:09:56 PM 40.4519 -73.4547 20° North 226 260 3,000 -50 Descending New York Center
Wed 02:10:54 PM 40.5081 -73.4706 348° North 197 227 3,000  Level New York Center
Wed 02:11:55 PM 40.5358 -73.5236 305° West 169 194 3,000  Level New York Center
Wed 02:13:15 PM 40.5667 -73.6000 298° West 169 194 3,000 -386 Level New York TRACON
Wed 02:14:15 PM 40.6000 -73.6500 311° West 165 190 2,100 -850 Descending New York TRACON
Wed 02:15:15 PM 40.6167 -73.7000 294° West 134 154 1,300 -789 Descending New York TRACON
Wed 02:16:09 PM 40.6333 -73.7333 303° West 130 150 600 -778 Descending New York TRACON

Login

Don't have an account? Register now (free) for customized features, flight alerts, and more!